Pagrindinis puslapis
METAR-TAF:

METAR-TAF

Oro uostai :

Sirtas, Turkija

platuma: 37-58-41N, ilguma: 41-50-21E, Aukštis: 610 m

Dabartinis oras

Ataskaita buvo paskelbta 2 valandos ir 49 minutes, ne 12:50 UTC
Vėjas 12 kt iš Pietų/Pietvakarių, svyruoja nuo Pietų ir Pietvakarių
Temperatūra 32°C
Drėgmė 20%
Slėgis 1004 hPa
Matomumas 10 km arba daugiau
Išsisklaidę debesys ne aukštis 4000 ft
Išsisklaidę debesys ne aukštis 10000 ft

METAR: LTCL 231250Z 20012KT 170V230 9999 SCT040 SCT100 32/06 Q1004

Laikas: 18:39 (15:39 UTC)

Prognozė

Ataskaita buvo paskelbta 1 valandą ir 59 minutes, ne 13:40 UTC
Prognozė galioja nuo 23 metu 15 UTC su 23 metu 24 UTC
Vėjas 8 kt iš Pietų
Matomumas 10 km arba daugiau
Mažai debesys ne aukštis 4000 ft
Išsisklaidę debesys ne aukštis 10000 ft

TAF: LTCL 231340Z 2315/2324 18008KT 9999 FEW040 SCT100

Orai ataskaitas ir orų prognozės (METAR, TAF).

turimą stotys yra geltonos ir raudonos taškus žemėlapyje.

Perkelti pele per norėdami pamatyti stoties vardą.

Tada spustelėkite, norėdami matyti oro stebėjimo ir prognozės.

Norėdami pakeisti žemėlapį: spustelėkite ant žalios mygtukų su juodo kryžiaus žemyn,; žalią mygtuką su brūkšneliu, jei norite nutolinti; arba žalių rodyklių gretimoms žemėlapius.


METAR-TAF: